sensor_id;sensor_type;location;lat;lon;timestamp;pressure;altitude;pressure_sealevel;temperature;humidity
23223;BME280;11780;13.904;100.620;2024-03-06T00:00:16;100892.41;;;32.30;68.98
23223;BME280;11780;13.904;100.620;2024-03-06T00:02:47;100894.38;;;32.30;68.94
23223;BME280;11780;13.904;100.620;2024-03-06T00:05:18;100894.50;;;32.25;69.08
23223;BME280;11780;13.904;100.620;2024-03-06T00:07:49;100893.41;;;32.26;68.89
23223;BME280;11780;13.904;100.620;2024-03-06T00:10:20;100895.31;;;32.25;69.12
23223;BME280;11780;13.904;100.620;2024-03-06T00:12:51;100896.00;;;32.22;69.49
23223;BME280;11780;13.904;100.620;2024-03-06T00:15:22;100908.69;;;32.23;69.49
23223;BME280;11780;13.904;100.620;2024-03-06T00:17:53;100909.66;;;32.18;69.36
23223;BME280;11780;13.904;100.620;2024-03-06T00:20:24;100906.22;;;32.22;69.24
23223;BME280;11780;13.904;100.620;2024-03-06T00:22:55;100913.75;;;32.21;69.16
23223;BME280;11780;13.904;100.620;2024-03-06T00:25:26;100918.44;;;32.20;69.49
23223;BME280;11780;13.904;100.620;2024-03-06T00:27:56;100919.09;;;32.17;69.42
23223;BME280;11780;13.904;100.620;2024-03-06T00:30:27;100928.22;;;32.18;69.55
23223;BME280;11780;13.904;100.620;2024-03-06T00:32:58;100929.38;;;32.26;69.36
23223;BME280;11780;13.904;100.620;2024-03-06T00:35:29;100936.19;;;32.19;69.54
23223;BME280;11780;13.904;100.620;2024-03-06T00:38:00;100944.69;;;32.14;69.60
23223;BME280;11780;13.904;100.620;2024-03-06T00:40:33;100942.38;;;32.16;69.86
23223;BME280;11780;13.904;100.620;2024-03-06T00:43:04;100948.41;;;32.18;69.69
23223;BME280;11780;13.904;100.620;2024-03-06T00:45:35;100944.97;;;32.22;69.65
23223;BME280;11780;13.904;100.620;2024-03-06T00:48:07;100950.03;;;32.19;69.79
23223;BME280;11780;13.904;100.620;2024-03-06T00:50:38;100956.72;;;32.18;69.60
23223;BME280;11780;13.904;100.620;2024-03-06T00:53:08;100958.66;;;32.18;69.95
23223;BME280;11780;13.904;100.620;2024-03-06T00:55:39;100961.75;;;32.16;69.89
23223;BME280;11780;13.904;100.620;2024-03-06T00:58:10;100965.00;;;32.18;69.72
23223;BME280;11780;13.904;100.620;2024-03-06T01:00:41;100971.03;;;32.20;69.54
23223;BME280;11780;13.904;100.620;2024-03-06T01:03:12;100979.69;;;32.19;69.58
23223;BME280;11780;13.904;100.620;2024-03-06T01:05:42;100983.72;;;32.22;69.99
23223;BME280;11780;13.904;100.620;2024-03-06T01:08:14;100988.97;;;32.23;69.83
23223;BME280;11780;13.904;100.620;2024-03-06T01:10:55;100995.63;;;32.22;69.96
23223;BME280;11780;13.904;100.620;2024-03-06T01:13:26;100992.53;;;32.24;69.55
23223;BME280;11780;13.904;100.620;2024-03-06T01:15:56;100992.53;;;32.24;69.75
23223;BME280;11780;13.904;100.620;2024-03-06T01:18:27;101000.50;;;32.25;70.02
23223;BME280;11780;13.904;100.620;2024-03-06T01:20:58;101003.25;;;32.25;70.00
23223;BME280;11780;13.904;100.620;2024-03-06T01:23:29;101006.53;;;32.27;69.79
23223;BME280;11780;13.904;100.620;2024-03-06T01:26:00;101006.53;;;32.27;69.89
23223;BME280;11780;13.904;100.620;2024-03-06T01:28:30;101010.16;;;32.28;69.68
23223;BME280;11780;13.904;100.620;2024-03-06T01:31:01;101011.09;;;32.32;69.57
23223;BME280;11780;13.904;100.620;2024-03-06T01:33:32;101017.63;;;32.27;69.92
23223;BME280;11780;13.904;100.620;2024-03-06T01:36:03;101017.63;;;32.36;69.73
23223;BME280;11780;13.904;100.620;2024-03-06T01:38:35;101021.53;;;32.35;69.65
23223;BME280;11780;13.904;100.620;2024-03-06T01:41:05;101023.47;;;32.34;69.68
23223;BME280;11780;13.904;100.620;2024-03-06T01:43:38;101022.50;;;32.39;69.43
23223;BME280;11780;13.904;100.620;2024-03-06T01:46:10;101027.88;;;32.36;69.53
23223;BME280;11780;13.904;100.620;2024-03-06T01:48:40;101030.16;;;32.42;69.45
23223;BME280;11780;13.904;100.620;2024-03-06T01:51:13;101035.69;;;32.42;69.39
23223;BME280;11780;13.904;100.620;2024-03-06T01:53:44;101032.91;;;32.42;69.60
23223;BME280;11780;13.904;100.620;2024-03-06T01:56:15;101030.66;;;32.44;69.59
23223;BME280;11780;13.904;100.620;2024-03-06T01:58:47;101045.44;;;32.48;69.45
23223;BME280;11780;13.904;100.620;2024-03-06T02:01:20;101039.09;;;32.48;69.47
23223;BME280;11780;13.904;100.620;2024-03-06T02:03:52;101038.09;;;32.53;69.15
23223;BME280;11780;13.904;100.620;2024-03-06T02:06:24;101036.31;;;32.57;69.09
23223;BME280;11780;13.904;100.620;2024-03-06T02:08:55;101044.13;;;32.55;69.12
23223;BME280;11780;13.904;100.620;2024-03-06T02:11:26;101053.41;;;32.59;69.08
23223;BME280;11780;13.904;100.620;2024-03-06T02:13:59;101047.88;;;32.59;68.79
23223;BME280;11780;13.904;100.620;2024-03-06T02:16:30;101042.34;;;32.59;68.90
23223;BME280;11780;13.904;100.620;2024-03-06T02:19:01;101047.06;;;32.58;68.92
23223;BME280;11780;13.904;100.620;2024-03-06T02:21:32;101042.34;;;32.59;68.96
23223;BME280;11780;13.904;100.620;2024-03-06T02:24:03;101045.59;;;32.61;68.61
23223;BME280;11780;13.904;100.620;2024-03-06T02:26:33;101042.50;;;32.62;68.83
23223;BME280;11780;13.904;100.620;2024-03-06T02:29:05;101055.53;;;32.62;68.76
23223;BME280;11780;13.904;100.620;2024-03-06T02:31:36;101053.22;;;32.64;68.53
23223;BME280;11780;13.904;100.620;2024-03-06T02:34:07;101053.22;;;32.64;68.33
23223;BME280;11780;13.904;100.620;2024-03-06T02:36:38;101051.59;;;32.63;68.27
23223;BME280;11780;13.904;100.620;2024-03-06T02:39:09;101049.81;;;32.67;68.13
23223;BME280;11780;13.904;100.620;2024-03-06T02:41:40;101056.66;;;32.70;67.87
23223;BME280;11780;13.904;100.620;2024-03-06T02:44:11;101056.00;;;32.64;68.11
23223;BME280;11780;13.904;100.620;2024-03-06T02:46:47;101045.75;;;32.64;67.53
23223;BME280;11780;13.904;100.620;2024-03-06T02:49:19;101053.06;;;32.69;67.36
23223;BME280;11780;13.904;100.620;2024-03-06T02:51:50;101056.31;;;32.71;67.48
23223;BME280;11780;13.904;100.620;2024-03-06T02:54:21;101042.97;;;32.73;67.48
23223;BME280;11780;13.904;100.620;2024-03-06T02:56:52;101050.78;;;32.71;67.52
23223;BME280;11780;13.904;100.620;2024-03-06T02:59:23;101046.88;;;32.72;67.26
23223;BME280;11780;13.904;100.620;2024-03-06T03:01:54;101050.13;;;32.74;67.17
23223;BME280;11780;13.904;100.620;2024-03-06T03:04:25;101051.28;;;32.73;66.88
23223;BME280;11780;13.904;100.620;2024-03-06T03:06:56;101049.00;;;32.75;66.81
23223;BME280;11780;13.904;100.620;2024-03-06T03:09:27;101037.91;;;32.75;67.05
23223;BME280;11780;13.904;100.620;2024-03-06T03:11:58;101041.47;;;32.76;67.15
23223;BME280;11780;13.904;100.620;2024-03-06T03:14:29;101035.28;;;32.79;67.00
23223;BME280;11780;13.904;100.620;2024-03-06T03:17:03;101039.53;;;32.76;66.80
23223;BME280;11780;13.904;100.620;2024-03-06T03:19:36;101033.31;;;32.79;66.92
23223;BME280;11780;13.904;100.620;2024-03-06T03:22:10;101039.38;;;32.82;66.41
23223;BME280;11780;13.904;100.620;2024-03-06T03:25:01;101039.38;;;32.82;66.51
23223;BME280;11780;13.904;100.620;2024-03-06T03:27:32;101037.09;;;32.84;66.50
23223;BME280;11780;13.904;100.620;2024-03-06T03:31:07;101024.88;;;32.85;66.43
23223;BME280;11780;13.904;100.620;2024-03-06T03:33:30;101021.44;;;32.88;66.22
23223;BME280;11780;13.904;100.620;2024-03-06T03:36:11;101021.44;;;32.88;66.28
23223;BME280;11780;13.904;100.620;2024-03-06T03:41:57;101011.34;;;32.92;65.95
23223;BME280;11780;13.904;100.620;2024-03-06T03:44:28;101010.50;;;32.91;66.08
23223;BME280;11780;13.904;100.620;2024-03-06T03:47:03;101009.69;;;32.91;65.52
23223;BME280;11780;13.904;100.620;2024-03-06T03:49:34;101004.16;;;32.91;65.41
23223;BME280;11780;13.904;100.620;2024-03-06T03:52:05;100994.00;;;32.95;65.45
23223;BME280;11780;13.904;100.620;2024-03-06T03:54:36;101000.88;;;32.98;65.38
23223;BME280;11780;13.904;100.620;2024-03-06T03:57:07;100989.78;;;32.98;65.20
23223;BME280;11780;13.904;100.620;2024-03-06T03:59:38;100988.66;;;32.99;64.98
23223;BME280;11780;13.904;100.620;2024-03-06T04:02:11;100982.28;;;32.98;64.85
23223;BME280;11780;13.904;100.620;2024-03-06T04:04:42;100976.88;;;33.02;64.60
23223;BME280;11780;13.904;100.620;2024-03-06T04:07:13;100983.25;;;33.02;64.05
23223;BME280;11780;13.904;100.620;2024-03-06T04:09:46;100978.97;;;33.05;63.75
23223;BME280;11780;13.904;100.620;2024-03-06T04:12:17;100977.03;;;33.05;63.38
23223;BME280;11780;13.904;100.620;2024-03-06T04:14:48;100982.38;;;33.10;63.01
23223;BME280;11780;13.904;100.620;2024-03-06T04:17:19;100970.84;;;33.08;63.03
23223;BME280;11780;13.904;100.620;2024-03-06T04:19:50;100973.59;;;33.08;63.01
23223;BME280;11780;13.904;100.620;2024-03-06T04:22:21;100962.97;;;33.10;62.63
23223;BME280;11780;13.904;100.620;2024-03-06T04:24:52;100960.19;;;33.10;62.90
23223;BME280;11780;13.904;100.620;2024-03-06T04:27:23;100955.97;;;33.13;62.67
23223;BME280;11780;13.904;100.620;2024-03-06T04:29:54;100951.22;;;33.14;62.51
23223;BME280;11780;13.904;100.620;2024-03-06T04:32:25;100948.44;;;33.14;62.47
23223;BME280;11780;13.904;100.620;2024-03-06T04:34:55;100945.03;;;33.17;62.37
23223;BME280;11780;13.904;100.620;2024-03-06T04:37:26;100933.13;;;33.16;62.14
23223;BME280;11780;13.904;100.620;2024-03-06T04:39:59;100937.50;;;33.17;61.71
23223;BME280;11780;13.904;100.620;2024-03-06T04:42:30;100924.94;;;33.20;61.51
23223;BME280;11780;13.904;100.620;2024-03-06T04:45:02;100926.09;;;33.19;61.76
23223;BME280;11780;13.904;100.620;2024-03-06T04:47:33;100922.19;;;33.20;61.25
23223;BME280;11780;13.904;100.620;2024-03-06T04:50:08;100920.56;;;33.19;61.35
23223;BME280;11780;13.904;100.620;2024-03-06T04:52:41;100917.44;;;33.20;61.08
23223;BME280;11780;13.904;100.620;2024-03-06T04:55:12;100907.31;;;33.24;60.86
23223;BME280;11780;13.904;100.620;2024-03-06T04:57:45;100903.88;;;33.28;60.78
23223;BME280;11780;13.904;100.620;2024-03-06T05:00:15;100894.72;;;33.27;60.61
23223;BME280;11780;13.904;100.620;2024-03-06T05:02:48;100890.31;;;33.26;60.79
23223;BME280;11780;13.904;100.620;2024-03-06T05:05:36;100880.06;;;33.27;60.87
23223;BME280;11780;13.904;100.620;2024-03-06T05:08:23;100873.97;;;33.33;60.58
23223;BME280;11780;13.904;100.620;2024-03-06T05:11:09;100880.50;;;33.37;60.47
23223;BME280;11780;13.904;100.620;2024-03-06T05:13:57;100864.66;;;33.38;59.97
23223;BME280;11780;13.904;100.620;2024-03-06T05:16:43;100859.25;;;33.42;60.18
23223;BME280;11780;13.904;100.620;2024-03-06T05:19:29;100853.69;;;33.42;59.98
23223;BME280;11780;13.904;100.620;2024-03-06T05:22:17;100842.63;;;33.42;60.18
23223;BME280;11780;13.904;100.620;2024-03-06T05:25:03;100833.97;;;33.43;60.22
23223;BME280;11780;13.904;100.620;2024-03-06T05:27:50;100838.38;;;33.44;60.09
23223;BME280;11780;13.904;100.620;2024-03-06T05:30:36;100837.69;;;33.47;60.28
23223;BME280;11780;13.904;100.620;2024-03-06T05:33:23;100832.94;;;33.48;60.00
23223;BME280;11780;13.904;100.620;2024-03-06T05:36:08;100818.06;;;33.52;59.57
23223;BME280;11780;13.904;100.620;2024-03-06T05:38:54;100822.47;;;33.53;59.11
23223;BME280;11780;13.904;100.620;2024-03-06T05:41:41;100813.81;;;33.55;59.11
23223;BME280;11780;13.904;100.620;2024-03-06T05:44:27;100807.44;;;33.54;59.26
23223;BME280;11780;13.904;100.620;2024-03-06T05:47:13;100796.00;;;33.56;59.02
23223;BME280;11780;13.904;100.620;2024-03-06T05:50:00;100792.22;;;33.61;58.57
23223;BME280;11780;13.904;100.620;2024-03-06T05:52:49;100788.28;;;33.62;58.70
23223;BME280;11780;13.904;100.620;2024-03-06T05:55:37;100787.59;;;33.65;58.52
23223;BME280;11780;13.904;100.620;2024-03-06T05:58:23;100777.63;;;33.64;58.39
23223;BME280;11780;13.904;100.620;2024-03-06T06:00:54;100771.09;;;33.68;58.55
23223;BME280;11780;13.904;100.620;2024-03-06T06:03:25;100778.94;;;33.66;58.54
23223;BME280;11780;13.904;100.620;2024-03-06T06:05:56;100769.59;;;33.71;58.39
23223;BME280;11780;13.904;100.620;2024-03-06T06:08:26;100765.31;;;33.74;58.30
23223;BME280;11780;13.904;100.620;2024-03-06T06:10:57;100747.41;;;33.71;58.08
23223;BME280;11780;13.904;100.620;2024-03-06T06:13:29;100752.38;;;33.78;57.92
23223;BME280;11780;13.904;100.620;2024-03-06T06:16:00;100754.47;;;33.81;57.63
23223;BME280;11780;13.904;100.620;2024-03-06T06:18:33;100748.44;;;33.79;57.27
23223;BME280;11780;13.904;100.620;2024-03-06T06:21:04;100734.38;;;33.84;57.23
23223;BME280;11780;13.904;100.620;2024-03-06T06:23:37;100729.97;;;33.83;57.10
23223;BME280;11780;13.904;100.620;2024-03-06T06:26:08;100719.34;;;33.85;57.13
23223;BME280;11780;13.904;100.620;2024-03-06T06:28:43;100719.34;;;33.85;57.05
23223;BME280;11780;13.904;100.620;2024-03-06T06:31:16;100723.03;;;33.89;56.97
23223;BME280;11780;13.904;100.620;2024-03-06T06:33:47;100710.00;;;33.90;57.22
23223;BME280;11780;13.904;100.620;2024-03-06T06:36:18;100713.06;;;33.88;57.44
23223;BME280;11780;13.904;100.620;2024-03-06T06:38:49;100697.38;;;33.92;56.90
23223;BME280;11780;13.904;100.620;2024-03-06T06:41:20;100695.78;;;33.91;57.71
23223;BME280;11780;13.904;100.620;2024-03-06T06:43:51;100695.78;;;33.91;57.34
23223;BME280;11780;13.904;100.620;2024-03-06T06:46:22;100682.00;;;33.95;57.48
23223;BME280;11780;13.904;100.620;2024-03-06T06:48:53;100681.31;;;33.98;57.60
23223;BME280;11780;13.904;100.620;2024-03-06T06:51:24;100679.38;;;33.98;57.48
23223;BME280;11780;13.904;100.620;2024-03-06T06:53:55;100667.81;;;33.96;57.74
23223;BME280;11780;13.904;100.620;2024-03-06T06:56:27;100665.81;;;33.97;57.50
23223;BME280;11780;13.904;100.620;2024-03-06T06:59:01;100665.13;;;34.00;57.97
23223;BME280;11780;13.904;100.620;2024-03-06T07:01:32;100660.50;;;34.04;57.78
23223;BME280;11780;13.904;100.620;2024-03-06T07:04:03;100654.97;;;34.04;57.66
23223;BME280;11780;13.904;100.620;2024-03-06T07:06:34;100651.03;;;34.05;57.63
23223;BME280;11780;13.904;100.620;2024-03-06T07:09:04;100645.47;;;34.05;57.54
23223;BME280;11780;13.904;100.620;2024-03-06T07:11:35;100643.75;;;34.13;57.10
23223;BME280;11780;13.904;100.620;2024-03-06T07:14:06;100628.56;;;34.10;57.68
23223;BME280;11780;13.904;100.620;2024-03-06T07:16:44;100636.22;;;34.13;57.59
23223;BME280;11780;13.904;100.620;2024-03-06T07:19:15;100632.38;;;34.18;57.61
23223;BME280;11780;13.904;100.620;2024-03-06T07:21:47;100625.56;;;34.15;57.52
23223;BME280;11780;13.904;100.620;2024-03-06T07:24:18;100619.78;;;34.21;57.33
23223;BME280;11780;13.904;100.620;2024-03-06T07:26:48;100614.34;;;34.24;57.09
23223;BME280;11780;13.904;100.620;2024-03-06T07:29:19;100609.84;;;34.20;57.14
23223;BME280;11780;13.904;100.620;2024-03-06T07:31:50;100607.16;;;34.23;57.15
23223;BME280;11780;13.904;100.620;2024-03-06T07:34:21;100608.00;;;34.24;56.87
23223;BME280;11780;13.904;100.620;2024-03-06T07:36:52;100608.78;;;34.24;56.71
23223;BME280;11780;13.904;100.620;2024-03-06T07:39:22;100600.44;;;34.24;56.69
23223;BME280;11780;13.904;100.620;2024-03-06T07:41:53;100597.69;;;34.24;56.62
23223;BME280;11780;13.904;100.620;2024-03-06T07:44:24;100595.34;;;34.26;56.15
23223;BME280;11780;13.904;100.620;2024-03-06T07:46:55;100595.34;;;34.26;56.44
23223;BME280;11780;13.904;100.620;2024-03-06T07:49:26;100588.19;;;34.25;56.10
23223;BME280;11780;13.904;100.620;2024-03-06T07:51:57;100588.66;;;34.27;56.38
23223;BME280;11780;13.904;100.620;2024-03-06T07:54:27;100585.19;;;34.30;56.29
23223;BME280;11780;13.904;100.620;2024-03-06T07:56:58;100580.41;;;34.31;56.23
23223;BME280;11780;13.904;100.620;2024-03-06T07:59:29;100583.88;;;34.28;56.29
23223;BME280;11780;13.904;100.620;2024-03-06T08:02:00;100575.22;;;34.29;56.53
23223;BME280;11780;13.904;100.620;2024-03-06T08:04:31;100574.88;;;34.31;56.38
23223;BME280;11780;13.904;100.620;2024-03-06T08:07:01;100572.09;;;34.31;56.44
23223;BME280;11780;13.904;100.620;2024-03-06T08:09:32;100567.78;;;34.34;56.13
23223;BME280;11780;13.904;100.620;2024-03-06T08:12:03;100566.63;;;34.35;55.99
23223;BME280;11780;13.904;100.620;2024-03-06T08:14:33;100563.84;;;34.35;56.21
23223;BME280;11780;13.904;100.620;2024-03-06T08:17:04;100551.59;;;34.36;56.14
23223;BME280;11780;13.904;100.620;2024-03-06T08:19:35;100557.28;;;34.39;55.64
23223;BME280;11780;13.904;100.620;2024-03-06T08:22:06;100555.28;;;34.40;55.61
23223;BME280;11780;13.904;100.620;2024-03-06T08:24:37;100560.16;;;34.43;55.77
23223;BME280;11780;13.904;100.620;2024-03-06T08:27:08;100553.00;;;34.42;55.94
23223;BME280;11780;13.904;100.620;2024-03-06T08:29:38;100549.72;;;34.40;55.50
23223;BME280;11780;13.904;100.620;2024-03-06T08:32:09;100554.50;;;34.39;55.49
23223;BME280;11780;13.904;100.620;2024-03-06T08:34:40;100541.41;;;34.40;55.47
23223;BME280;11780;13.904;100.620;2024-03-06T08:37:10;100548.94;;;34.39;55.51
23223;BME280;11780;13.904;100.620;2024-03-06T08:39:43;100546.50;;;34.38;55.27
23223;BME280;11780;13.904;100.620;2024-03-06T08:42:13;100551.72;;;34.39;54.83
23223;BME280;11780;13.904;100.620;2024-03-06T08:44:48;100549.28;;;34.38;54.82
23223;BME280;11780;13.904;100.620;2024-03-06T08:47:19;100541.66;;;34.35;54.62
23223;BME280;11780;13.904;100.620;2024-03-06T08:49:50;100536.09;;;34.35;54.82
23223;BME280;11780;13.904;100.620;2024-03-06T08:52:21;100544.69;;;34.29;54.74
23223;BME280;11780;13.904;100.620;2024-03-06T08:54:52;100549.53;;;34.33;55.15
23223;BME280;11780;13.904;100.620;2024-03-06T08:57:23;100541.66;;;34.35;54.61
23223;BME280;11780;13.904;100.620;2024-03-06T08:59:59;100535.19;;;34.30;54.79
23223;BME280;11780;13.904;100.620;2024-03-06T09:02:30;100537.63;;;34.32;54.91
23223;BME280;11780;13.904;100.620;2024-03-06T09:05:01;100538.44;;;34.33;54.41
23223;BME280;11780;13.904;100.620;2024-03-06T09:07:34;100542.38;;;34.31;54.66
23223;BME280;11780;13.904;100.620;2024-03-06T09:10:12;100537.53;;;34.28;54.41
23223;BME280;11780;13.904;100.620;2024-03-06T09:12:43;100533.59;;;34.29;54.37
23223;BME280;11780;13.904;100.620;2024-03-06T09:15:15;100536.69;;;34.28;54.58
23223;BME280;11780;13.904;100.620;2024-03-06T09:17:46;100535.91;;;34.27;54.30
23223;BME280;11780;13.904;100.620;2024-03-06T09:20:18;100536.59;;;34.24;54.27
23223;BME280;11780;13.904;100.620;2024-03-06T09:22:49;100529.44;;;34.23;54.45
23223;BME280;11780;13.904;100.620;2024-03-06T09:25:20;100541.00;;;34.25;54.25
23223;BME280;11780;13.904;100.620;2024-03-06T09:27:54;100541.00;;;34.25;54.06
23223;BME280;11780;13.904;100.620;2024-03-06T09:30:24;100533.38;;;34.22;54.53
23223;BME280;11780;13.904;100.620;2024-03-06T09:32:55;100536.97;;;34.23;54.20
23223;BME280;11780;13.904;100.620;2024-03-06T09:35:26;100530.25;;;34.24;53.75
23223;BME280;11780;13.904;100.620;2024-03-06T09:38:12;100531.88;;;34.25;53.95
23223;BME280;11780;13.904;100.620;2024-03-06T09:40:47;100537.75;;;34.23;53.84
23223;BME280;11780;13.904;100.620;2024-03-06T09:43:19;100535.81;;;34.24;53.73
23223;BME280;11780;13.904;100.620;2024-03-06T09:45:51;100533.38;;;34.22;53.70
23223;BME280;11780;13.904;100.620;2024-03-06T09:48:22;100527.03;;;34.22;53.82
23223;BME280;11780;13.904;100.620;2024-03-06T09:50:54;100521.09;;;34.23;53.51
23223;BME280;11780;13.904;100.620;2024-03-06T09:53:28;100528.19;;;34.21;53.36
23223;BME280;11780;13.904;100.620;2024-03-06T09:55:59;100520.66;;;34.21;53.30
23223;BME280;11780;13.904;100.620;2024-03-06T09:58:31;100525.88;;;34.23;53.07
23223;BME280;11780;13.904;100.620;2024-03-06T10:01:02;100527.03;;;34.22;53.17
23223;BME280;11780;13.904;100.620;2024-03-06T10:03:36;100519.03;;;34.20;53.28
23223;BME280;11780;13.904;100.620;2024-03-06T10:06:07;100521.81;;;34.20;53.01
23223;BME280;11780;13.904;100.620;2024-03-06T10:08:42;100528.09;;;34.17;52.85
23223;BME280;11780;13.904;100.620;2024-03-06T10:11:14;100519.03;;;34.20;52.75
23223;BME280;11780;13.904;100.620;2024-03-06T10:13:45;100523.78;;;34.20;52.01
23223;BME280;11780;13.904;100.620;2024-03-06T10:16:16;100516.16;;;34.16;51.94
23223;BME280;11780;13.904;100.620;2024-03-06T10:18:47;100517.31;;;34.15;51.82
23223;BME280;11780;13.904;100.620;2024-03-06T10:21:29;100516.97;;;34.17;51.96
23223;BME280;11780;13.904;100.620;2024-03-06T10:24:02;100522.16;;;34.19;51.76
23223;BME280;11780;13.904;100.620;2024-03-06T10:26:33;100514.91;;;34.14;51.40
23223;BME280;11780;13.904;100.620;2024-03-06T10:29:03;100518.94;;;34.16;51.89
23223;BME280;11780;13.904;100.620;2024-03-06T10:31:34;100518.16;;;34.16;51.57
23223;BME280;11780;13.904;100.620;2024-03-06T10:34:08;100510.97;;;34.15;51.75
23223;BME280;11780;13.904;100.620;2024-03-06T10:36:39;100512.91;;;34.14;51.98
23223;BME280;11780;13.904;100.620;2024-03-06T10:39:12;100510.16;;;34.14;51.82
23223;BME280;11780;13.904;100.620;2024-03-06T10:41:46;100518.47;;;34.14;51.68
23223;BME280;11780;13.904;100.620;2024-03-06T10:44:26;100522.06;;;34.15;51.51
23223;BME280;11780;13.904;100.620;2024-03-06T10:47:05;100522.41;;;34.13;52.09
23223;BME280;11780;13.904;100.620;2024-03-06T10:49:37;100514.91;;;34.14;51.64
23223;BME280;11780;13.904;100.620;2024-03-06T10:52:09;100514.91;;;34.14;51.62
23223;BME280;11780;13.904;100.620;2024-03-06T10:54:41;100521.25;;;34.14;51.91
23223;BME280;11780;13.904;100.620;2024-03-06T10:57:12;100524.38;;;34.13;51.51
23223;BME280;11780;13.904;100.620;2024-03-06T10:59:45;100528.31;;;34.12;51.59
23223;BME280;11780;13.904;100.620;2024-03-06T11:02:16;100528.31;;;34.12;51.51
23223;BME280;11780;13.904;100.620;2024-03-06T11:04:48;100534.66;;;34.12;51.61
23223;BME280;11780;13.904;100.620;2024-03-06T11:07:19;100531.91;;;34.12;51.60
23223;BME280;11780;13.904;100.620;2024-03-06T11:09:50;100542.19;;;34.12;51.75
23223;BME280;11780;13.904;100.620;2024-03-06T11:12:37;100539.75;;;34.10;52.06
23223;BME280;11780;13.904;100.620;2024-03-06T11:15:16;100540.13;;;34.09;52.04
23223;BME280;11780;13.904;100.620;2024-03-06T11:17:49;100543.34;;;34.11;52.11
23223;BME280;11780;13.904;100.620;2024-03-06T11:20:21;100537.81;;;34.11;52.13
23223;BME280;11780;13.904;100.620;2024-03-06T11:28:23;100547.28;;;34.10;52.33
23223;BME280;11780;13.904;100.620;2024-03-06T11:30:59;100544.50;;;34.10;52.24
23223;BME280;11780;13.904;100.620;2024-03-06T11:33:46;100552.03;;;34.09;52.96
23223;BME280;11780;13.904;100.620;2024-03-06T11:38:55;100561.97;;;34.10;53.06
23223;BME280;11780;13.904;100.620;2024-03-06T11:41:30;100561.16;;;34.10;52.93
23223;BME280;11780;13.904;100.620;2024-03-06T11:44:02;100559.56;;;34.09;53.25
23223;BME280;11780;13.904;100.620;2024-03-06T11:46:46;100563.94;;;34.10;53.31
23223;BME280;11780;13.904;100.620;2024-03-06T11:49:19;100564.63;;;34.07;53.76
23223;BME280;11780;13.904;100.620;2024-03-06T11:51:56;100572.16;;;34.06;53.53
23223;BME280;11780;13.904;100.620;2024-03-06T11:54:28;100573.44;;;34.09;53.63
23223;BME280;11780;13.904;100.620;2024-03-06T11:57:01;100582.91;;;34.08;53.66
23223;BME280;11780;13.904;100.620;2024-03-06T11:59:36;100579.34;;;34.07;53.70
23223;BME280;11780;13.904;100.620;2024-03-06T12:02:10;100582.44;;;34.06;53.78
23223;BME280;11780;13.904;100.620;2024-03-06T12:04:40;100582.13;;;34.07;53.67
23223;BME280;11780;13.904;100.620;2024-03-06T12:07:12;100592.38;;;34.07;54.08
23223;BME280;11780;13.904;100.620;2024-03-06T12:09:43;100586.75;;;34.03;54.33
23223;BME280;11780;13.904;100.620;2024-03-06T12:12:15;100594.38;;;34.06;54.22
23223;BME280;11780;13.904;100.620;2024-03-06T12:14:57;100610.19;;;34.06;54.39
23223;BME280;11780;13.904;100.620;2024-03-06T12:17:30;100606.97;;;34.04;54.51
23223;BME280;11780;13.904;100.620;2024-03-06T12:20:00;100618.53;;;34.06;54.63
23223;BME280;11780;13.904;100.620;2024-03-06T12:22:35;100613.22;;;34.00;55.06
23223;BME280;11780;13.904;100.620;2024-03-06T12:25:07;100625.94;;;34.02;55.30
23223;BME280;11780;13.904;100.620;2024-03-06T12:27:37;100626.97;;;33.97;55.81
23223;BME280;11780;13.904;100.620;2024-03-06T12:30:09;100634.03;;;33.94;56.51
23223;BME280;11780;13.904;100.620;2024-03-06T12:32:44;100639.94;;;33.93;56.43
23223;BME280;11780;13.904;100.620;2024-03-06T12:35:26;100636.34;;;33.92;56.25
23223;BME280;11780;13.904;100.620;2024-03-06T12:37:57;100640.94;;;33.88;56.29
23223;BME280;11780;13.904;100.620;2024-03-06T12:40:30;100639.69;;;33.85;56.80
23223;BME280;11780;13.904;100.620;2024-03-06T12:43:00;100640.94;;;33.88;57.03
23223;BME280;11780;13.904;100.620;2024-03-06T12:45:33;100655.84;;;33.83;57.53
23223;BME280;11780;13.904;100.620;2024-03-06T12:48:04;100643.28;;;33.86;57.60
23223;BME280;11780;13.904;100.620;2024-03-06T12:50:35;100660.25;;;33.84;57.62
23223;BME280;11780;13.904;100.620;2024-03-06T12:53:05;100664.88;;;33.80;57.50
23223;BME280;11780;13.904;100.620;2024-03-06T12:55:36;100666.84;;;33.80;58.47
23223;BME280;11780;13.904;100.620;2024-03-06T12:58:07;100681.19;;;33.82;58.88
23223;BME280;11780;13.904;100.620;2024-03-06T13:00:38;100683.59;;;33.83;58.90
23223;BME280;11780;13.904;100.620;2024-03-06T13:03:09;100686.84;;;33.85;58.97
23223;BME280;11780;13.904;100.620;2024-03-06T13:05:40;100696.00;;;33.86;59.60
23223;BME280;11780;13.904;100.620;2024-03-06T13:08:11;100685.56;;;33.83;59.17
23223;BME280;11780;13.904;100.620;2024-03-06T13:10:44;100691.44;;;33.81;60.43